AUA823H LOWW-LGTS
Flight info
| Callsign | AUA823H |
|---|---|
| Flight time | 1h 20m |
| Altitude | 35000 |
| Route | ARSIN1B ARSIN DCT NALOX DCT BABIT DCT NEVAK DCT INRES DCT IBISI DCT MAKED/N0373F230 P36 ALIKO ALIKO1P |
| Aircraft | A320/M-SDE3FGHIRWY/LB1 |
Departure
| Time | 2026-05-04 06:53 |
|---|---|
| Airport | Vienna International Airport (LOWW) |
Arrival
| Time | 2026-05-04 08:14 |
|---|---|
| Airport | Thessaloniki Macedonia International Airport (LGTS) |
| Time | Latitude | Longitude | Altitude | Speed | Heading |
|---|---|---|---|---|---|
| 2026-05-04 06:03 | 48.11730 | 16.56739 | 626 ft | 0 kts | 25° |
| 2026-05-04 06:14 | 48.11730 | 16.56738 | 610 ft | 0 kts | 25° |
| 2026-05-04 06:41 | 48.11719 | 16.56731 | 609 ft | 4 kts | 25° |
| 2026-05-04 06:41 | 48.11700 | 16.56717 | 613 ft | 4 kts | 27° |
| 2026-05-04 06:42 | 48.11678 | 16.56694 | 615 ft | 4 kts | 49° |
| 2026-05-04 06:42 | 48.11666 | 16.56662 | 625 ft | 4 kts | 94° |
| 2026-05-04 06:42 | 48.11673 | 16.56630 | 625 ft | 2 kts | 116° |
| 2026-05-04 06:44 | 48.11673 | 16.56629 | 625 ft | 0 kts | 116° |
| 2026-05-04 06:45 | 48.11668 | 16.56645 | 625 ft | 0 kts | 116° |
| 2026-05-04 06:46 | 48.11668 | 16.56644 | 625 ft | 0 kts | 116° |
| 2026-05-04 06:48 | 48.11508 | 16.57137 | 613 ft | 16 kts | 116° |
| 2026-05-04 06:48 | 48.11459 | 16.57287 | 616 ft | 17 kts | 116° |
| 2026-05-04 06:49 | 48.11437 | 16.57416 | 613 ft | 12 kts | 50° |
| 2026-05-04 06:50 | 48.11994 | 16.57356 | 609 ft | 11 kts | 71° |
| 2026-05-04 06:51 | 48.12012 | 16.57452 | 613 ft | 9 kts | 77° |
| 2026-05-04 06:51 | 48.12004 | 16.57545 | 621 ft | 10 kts | 104° |
| 2026-05-04 06:51 | 48.11984 | 16.57659 | 609 ft | 12 kts | 105° |
| 2026-05-04 06:51 | 48.11955 | 16.57784 | 614 ft | 13 kts | 120° |
| 2026-05-04 06:52 | 48.11919 | 16.57843 | 616 ft | 5 kts | 159° |
| 2026-05-04 06:52 | 48.11901 | 16.57850 | 613 ft | 0 kts | 164° |
| 2026-05-04 06:52 | 48.11883 | 16.57858 | 617 ft | 17 kts | 163° |
| 2026-05-04 06:52 | 48.11530 | 16.58008 | 614 ft | 86 kts | 164° |
| 2026-05-04 06:53 | 48.10766 | 16.58330 | 621 ft | 140 kts | 164° |
| 2026-05-04 06:53 | 48.09727 | 16.58770 | 935 ft | 156 kts | 163° |
| 2026-05-04 06:53 | 48.08699 | 16.59199 | 1750 ft | 152 kts | 168° |
| 2026-05-04 06:53 | 48.07679 | 16.59612 | 2473 ft | 154 kts | 168° |
| 2026-05-04 06:54 | 48.06577 | 16.60050 | 2849 ft | 172 kts | 168° |
| 2026-05-04 06:54 | 48.05367 | 16.60484 | 3219 ft | 188 kts | 171° |
| 2026-05-04 06:54 | 48.03998 | 16.60878 | 3541 ft | 214 kts | 172° |
| 2026-05-04 06:54 | 48.02451 | 16.61329 | 3885 ft | 240 kts | 171° |
| 2026-05-04 06:55 | 48.00762 | 16.61834 | 4480 ft | 255 kts | 171° |
| 2026-05-04 06:55 | 47.99004 | 16.62368 | 5349 ft | 261 kts | 170° |
| 2026-05-04 06:55 | 47.97202 | 16.62911 | 6246 ft | 267 kts | 171° |
| 2026-05-04 06:55 | 47.95372 | 16.63461 | 7036 ft | 271 kts | 171° |
| 2026-05-04 06:56 | 47.93512 | 16.64021 | 7826 ft | 275 kts | 170° |
| 2026-05-04 06:57 | 47.79268 | 16.68443 | 12203 ft | 336 kts | 169° |
| 2026-05-04 06:58 | 47.76984 | 16.69153 | 13085 ft | 335 kts | 169° |
| 2026-05-04 06:58 | 47.74680 | 16.69865 | 13752 ft | 340 kts | 169° |
| 2026-05-04 06:58 | 47.72347 | 16.70583 | 14357 ft | 344 kts | 169° |
| 2026-05-04 06:58 | 47.69980 | 16.71300 | 14962 ft | 348 kts | 169° |
| 2026-05-04 06:59 | 47.67590 | 16.72004 | 15605 ft | 351 kts | 170° |
| 2026-05-04 06:59 | 47.65217 | 16.72700 | 16266 ft | 353 kts | 169° |
| 2026-05-04 06:59 | 47.62790 | 16.73422 | 16894 ft | 356 kts | 169° |
| 2026-05-04 06:59 | 47.60353 | 16.74148 | 17520 ft | 359 kts | 170° |
| 2026-05-04 07:01 | 47.42318 | 16.76744 | 21132 ft | 386 kts | 177° |
| 2026-05-04 07:01 | 47.39623 | 16.77014 | 21619 ft | 390 kts | 177° |
| 2026-05-04 07:02 | 47.36896 | 16.77277 | 22089 ft | 395 kts | 177° |
| 2026-05-04 07:02 | 47.34135 | 16.77537 | 22556 ft | 399 kts | 177° |
| 2026-05-04 07:02 | 47.31378 | 16.77797 | 23014 ft | 403 kts | 177° |
| 2026-05-04 07:02 | 47.28555 | 16.78061 | 23474 ft | 407 kts | 177° |
| 2026-05-04 07:03 | 47.25698 | 16.78325 | 23876 ft | 411 kts | 177° |
| 2026-05-04 07:03 | 47.22858 | 16.78591 | 24243 ft | 415 kts | 177° |
| 2026-05-04 07:03 | 47.19968 | 16.78869 | 24616 ft | 418 kts | 177° |
| 2026-05-04 07:03 | 47.17059 | 16.79153 | 24984 ft | 420 kts | 177° |
| 2026-05-04 07:04 | 47.14123 | 16.79437 | 25344 ft | 423 kts | 177° |
| 2026-05-04 07:04 | 47.12166 | 16.79624 | 25575 ft | 425 kts | 177° |
| 2026-05-04 07:04 | 47.09199 | 16.79902 | 25911 ft | 428 kts | 177° |
| 2026-05-04 07:04 | 47.05233 | 16.80265 | 26363 ft | 432 kts | 177° |
| 2026-05-04 07:05 | 47.03201 | 16.80453 | 26605 ft | 433 kts | 177° |
| 2026-05-04 07:05 | 47.00222 | 16.80732 | 26932 ft | 436 kts | 177° |
| 2026-05-04 07:05 | 46.97182 | 16.81020 | 27270 ft | 439 kts | 177° |
| 2026-05-04 07:05 | 46.94126 | 16.81375 | 27599 ft | 441 kts | 172° |
| 2026-05-04 07:06 | 46.88298 | 16.84283 | 28232 ft | 448 kts | 149° |
| 2026-05-04 07:06 | 46.85748 | 16.86903 | 28532 ft | 450 kts | 138° |
| 2026-05-04 07:06 | 46.83579 | 16.90194 | 28834 ft | 451 kts | 127° |
| 2026-05-04 07:07 | 46.81827 | 16.94012 | 29129 ft | 453 kts | 121° |
| 2026-05-04 07:08 | 46.69874 | 17.21622 | 30871 ft | 468 kts | 121° |
| 2026-05-04 07:09 | 46.68132 | 17.25638 | 31067 ft | 470 kts | 121° |
| 2026-05-04 07:09 | 46.66383 | 17.29665 | 31317 ft | 470 kts | 121° |
| 2026-05-04 07:09 | 46.64633 | 17.33691 | 31605 ft | 469 kts | 121° |
| 2026-05-04 07:09 | 46.62884 | 17.37701 | 31891 ft | 469 kts | 121° |
| 2026-05-04 07:10 | 46.61149 | 17.41664 | 32178 ft | 469 kts | 121° |
| 2026-05-04 07:10 | 46.59399 | 17.45652 | 32475 ft | 468 kts | 121° |
| 2026-05-04 07:12 | 46.47176 | 17.73440 | 34442 ft | 465 kts | 121° |
| 2026-05-04 07:12 | 46.45429 | 17.77385 | 34707 ft | 464 kts | 121° |
| 2026-05-04 07:12 | 46.43682 | 17.81326 | 34962 ft | 463 kts | 121° |
| 2026-05-04 07:12 | 46.41932 | 17.85258 | 35116 ft | 463 kts | 121° |
| 2026-05-04 07:13 | 46.40191 | 17.89164 | 35159 ft | 460 kts | 121° |
| 2026-05-04 07:13 | 46.36722 | 17.96940 | 35150 ft | 458 kts | 121° |
| 2026-05-04 07:14 | 46.28092 | 18.16254 | 35154 ft | 458 kts | 121° |
| 2026-05-04 07:15 | 46.24614 | 18.23976 | 35168 ft | 458 kts | 121° |
| 2026-05-04 07:15 | 46.21149 | 18.31646 | 35171 ft | 458 kts | 121° |
| 2026-05-04 07:16 | 46.17653 | 18.39359 | 35164 ft | 458 kts | 121° |
| 2026-05-04 07:16 | 46.14176 | 18.47015 | 35172 ft | 458 kts | 121° |
| 2026-05-04 07:17 | 46.10682 | 18.54704 | 35173 ft | 458 kts | 121° |
| 2026-05-04 07:17 | 46.07197 | 18.62340 | 35179 ft | 458 kts | 121° |
| 2026-05-04 07:18 | 46.03697 | 18.69997 | 35178 ft | 458 kts | 121° |
| 2026-05-04 07:18 | 46.00180 | 18.77651 | 35183 ft | 458 kts | 121° |
| 2026-05-04 07:19 | 45.96665 | 18.85295 | 35189 ft | 458 kts | 121° |
| 2026-05-04 07:19 | 45.92860 | 18.92584 | 35191 ft | 460 kts | 133° |
| 2026-05-04 07:20 | 45.87816 | 18.98292 | 35186 ft | 463 kts | 143° |
| 2026-05-04 07:20 | 45.82530 | 19.03587 | 35182 ft | 463 kts | 143° |
| 2026-05-04 07:22 | 45.61425 | 19.24740 | 35183 ft | 464 kts | 143° |
| 2026-05-04 07:23 | 45.56126 | 19.30015 | 35187 ft | 464 kts | 143° |
| 2026-05-04 07:23 | 45.50857 | 19.35242 | 35187 ft | 464 kts | 143° |
| 2026-05-04 07:24 | 45.45541 | 19.40514 | 35185 ft | 464 kts | 143° |
| 2026-05-04 07:24 | 45.40229 | 19.45758 | 35184 ft | 464 kts | 143° |
| 2026-05-04 07:26 | 45.18988 | 19.66635 | 35189 ft | 465 kts | 143° |
| 2026-05-04 07:27 | 45.13685 | 19.71819 | 35182 ft | 465 kts | 143° |
| 2026-05-04 07:27 | 45.08337 | 19.77018 | 35183 ft | 465 kts | 143° |
| 2026-05-04 07:28 | 45.03032 | 19.82168 | 35181 ft | 466 kts | 143° |
| 2026-05-04 07:28 | 44.97672 | 19.87369 | 35181 ft | 466 kts | 143° |
| 2026-05-04 07:29 | 44.92331 | 19.92507 | 35185 ft | 467 kts | 143° |
| 2026-05-04 07:29 | 44.86887 | 19.97571 | 35182 ft | 468 kts | 144° |
| 2026-05-04 07:30 | 44.81421 | 20.02590 | 35183 ft | 468 kts | 144° |
| 2026-05-04 07:30 | 44.75963 | 20.07631 | 35183 ft | 469 kts | 144° |
| 2026-05-04 07:31 | 44.70545 | 20.12660 | 35182 ft | 470 kts | 143° |
| 2026-05-04 07:33 | 44.48627 | 20.32806 | 35184 ft | 471 kts | 144° |
| 2026-05-04 07:33 | 44.43158 | 20.37812 | 35187 ft | 472 kts | 144° |
| 2026-05-04 07:34 | 44.37642 | 20.42839 | 35185 ft | 472 kts | 144° |
| 2026-05-04 07:34 | 44.32118 | 20.47858 | 35191 ft | 473 kts | 144° |
| 2026-05-04 07:35 | 44.26630 | 20.52846 | 35192 ft | 473 kts | 144° |
| 2026-05-04 07:35 | 44.21096 | 20.57867 | 35197 ft | 474 kts | 144° |
| 2026-05-04 07:36 | 44.15590 | 20.62834 | 35208 ft | 474 kts | 144° |
| 2026-05-04 07:38 | 43.93482 | 20.82696 | 35223 ft | 473 kts | 144° |
| 2026-05-04 07:38 | 43.87945 | 20.87652 | 35221 ft | 473 kts | 144° |
| 2026-05-04 07:39 | 43.82410 | 20.92587 | 35223 ft | 473 kts | 144° |
| 2026-05-04 07:39 | 43.76864 | 20.97509 | 35217 ft | 473 kts | 144° |
| 2026-05-04 07:40 | 43.71359 | 21.02397 | 35207 ft | 472 kts | 144° |
| 2026-05-04 07:40 | 43.65835 | 21.07301 | 35211 ft | 472 kts | 144° |
| 2026-05-04 07:41 | 43.60182 | 21.11919 | 35209 ft | 474 kts | 152° |
| 2026-05-04 07:41 | 43.54217 | 21.15856 | 35204 ft | 474 kts | 152° |
| 2026-05-04 07:42 | 43.48254 | 21.19757 | 35200 ft | 474 kts | 152° |
| 2026-05-04 07:42 | 43.42277 | 21.23650 | 35194 ft | 475 kts | 152° |
| 2026-05-04 07:43 | 43.36330 | 21.27514 | 35189 ft | 475 kts | 152° |
| 2026-05-04 07:43 | 43.30363 | 21.31402 | 35186 ft | 475 kts | 152° |
| 2026-05-04 07:44 | 43.24369 | 21.35307 | 35183 ft | 475 kts | 152° |
| 2026-05-04 07:44 | 43.18408 | 21.39158 | 35180 ft | 476 kts | 152° |
| 2026-05-04 07:45 | 43.12398 | 21.43026 | 35176 ft | 476 kts | 152° |
| 2026-05-04 07:45 | 43.06429 | 21.46875 | 35180 ft | 477 kts | 152° |
| 2026-05-04 07:46 | 43.00409 | 21.50765 | 35178 ft | 478 kts | 152° |
| 2026-05-04 07:46 | 42.94385 | 21.54638 | 35178 ft | 478 kts | 152° |
| 2026-05-04 07:47 | 42.88394 | 21.58469 | 35179 ft | 479 kts | 152° |
| 2026-05-04 07:49 | 42.64175 | 21.73906 | 35181 ft | 482 kts | 152° |
| 2026-05-04 07:49 | 42.58079 | 21.77778 | 35181 ft | 483 kts | 152° |
| 2026-05-04 07:50 | 42.52018 | 21.81610 | 35173 ft | 483 kts | 152° |
| 2026-05-04 07:50 | 42.45891 | 21.85470 | 35172 ft | 484 kts | 152° |
| 2026-05-04 07:51 | 42.42868 | 21.87372 | 34705 ft | 484 kts | 152° |
| 2026-05-04 07:51 | 42.39810 | 21.89300 | 33938 ft | 486 kts | 152° |
| 2026-05-04 07:51 | 42.36743 | 21.91231 | 33344 ft | 483 kts | 152° |
| 2026-05-04 07:51 | 42.33697 | 21.93145 | 32802 ft | 479 kts | 152° |
| 2026-05-04 07:52 | 42.30673 | 21.95042 | 32256 ft | 476 kts | 152° |
| 2026-05-04 07:52 | 42.27720 | 21.96894 | 31750 ft | 473 kts | 152° |
| 2026-05-04 07:52 | 42.24740 | 21.98760 | 31241 ft | 469 kts | 152° |
| 2026-05-04 07:52 | 42.21769 | 22.00618 | 30728 ft | 467 kts | 151° |
| 2026-05-04 07:53 | 42.18833 | 22.02449 | 30242 ft | 464 kts | 151° |
| 2026-05-04 07:54 | 41.98858 | 22.14873 | 26756 ft | 439 kts | 151° |
| 2026-05-04 07:55 | 41.96090 | 22.16588 | 26305 ft | 436 kts | 151° |
| 2026-05-04 07:55 | 41.94270 | 22.17716 | 26014 ft | 434 kts | 150° |
| 2026-05-04 07:55 | 41.90637 | 22.19964 | 25448 ft | 430 kts | 151° |
| 2026-05-04 07:55 | 41.87934 | 22.21637 | 25023 ft | 427 kts | 150° |
| 2026-05-04 07:56 | 41.86153 | 22.22739 | 24743 ft | 425 kts | 151° |
| 2026-05-04 07:56 | 41.82575 | 22.24942 | 24192 ft | 421 kts | 151° |
| 2026-05-04 07:56 | 41.80816 | 22.26022 | 23919 ft | 419 kts | 151° |
| 2026-05-04 07:56 | 41.78173 | 22.27644 | 23474 ft | 416 kts | 151° |
| 2026-05-04 07:57 | 41.75551 | 22.29255 | 23020 ft | 412 kts | 151° |
| 2026-05-04 07:57 | 41.72953 | 22.30854 | 22622 ft | 408 kts | 151° |
| 2026-05-04 07:57 | 41.70417 | 22.32417 | 22215 ft | 404 kts | 151° |
| 2026-05-04 07:57 | 41.67867 | 22.33985 | 21807 ft | 400 kts | 151° |
| 2026-05-04 07:58 | 41.65344 | 22.35533 | 21275 ft | 396 kts | 151° |
| 2026-05-04 07:58 | 41.62855 | 22.37057 | 20797 ft | 392 kts | 152° |
| 2026-05-04 07:58 | 41.60377 | 22.38575 | 20370 ft | 389 kts | 152° |
| 2026-05-04 07:58 | 41.57958 | 22.40057 | 19952 ft | 385 kts | 152° |
| 2026-05-04 07:59 | 41.55522 | 22.41547 | 19531 ft | 382 kts | 152° |
| 2026-05-04 07:59 | 41.53114 | 22.43016 | 19120 ft | 378 kts | 152° |
| 2026-05-04 07:59 | 41.50720 | 22.44475 | 18718 ft | 377 kts | 152° |
| 2026-05-04 07:59 | 41.48369 | 22.45908 | 18300 ft | 375 kts | 152° |
| 2026-05-04 08:00 | 41.45996 | 22.47354 | 17833 ft | 374 kts | 152° |
| 2026-05-04 08:00 | 41.43635 | 22.48795 | 17381 ft | 373 kts | 152° |
| 2026-05-04 08:00 | 41.41273 | 22.50236 | 16925 ft | 371 kts | 153° |
| 2026-05-04 08:02 | 41.25530 | 22.59768 | 13925 ft | 340 kts | 153° |
| 2026-05-04 08:02 | 41.23413 | 22.61049 | 13471 ft | 337 kts | 153° |
| 2026-05-04 08:02 | 41.21286 | 22.62336 | 13014 ft | 334 kts | 153° |
| 2026-05-04 08:03 | 41.19175 | 22.63611 | 12565 ft | 331 kts | 153° |
| 2026-05-04 08:03 | 41.17083 | 22.64871 | 12125 ft | 328 kts | 153° |
| 2026-05-04 08:03 | 41.15001 | 22.66115 | 11698 ft | 326 kts | 153° |
| 2026-05-04 08:03 | 41.12967 | 22.67332 | 11272 ft | 323 kts | 153° |
| 2026-05-04 08:04 | 41.10914 | 22.68564 | 10852 ft | 321 kts | 153° |
| 2026-05-04 08:04 | 41.08901 | 22.69775 | 10426 ft | 312 kts | 153° |
| 2026-05-04 08:04 | 41.06956 | 22.70943 | 10016 ft | 301 kts | 153° |
| 2026-05-04 08:04 | 41.05065 | 22.72080 | 9562 ft | 296 kts | 153° |
| 2026-05-04 08:05 | 41.03194 | 22.73207 | 9102 ft | 294 kts | 153° |
| 2026-05-04 08:05 | 41.01335 | 22.74329 | 8660 ft | 292 kts | 153° |
| 2026-05-04 08:05 | 40.99513 | 22.75427 | 8217 ft | 291 kts | 153° |
| 2026-05-04 08:05 | 40.97670 | 22.76535 | 7790 ft | 289 kts | 153° |
| 2026-05-04 08:06 | 40.95862 | 22.77619 | 7371 ft | 287 kts | 153° |
| 2026-05-04 08:06 | 40.94048 | 22.78704 | 6944 ft | 285 kts | 154° |
| 2026-05-04 08:06 | 40.92244 | 22.79785 | 6527 ft | 283 kts | 154° |
| 2026-05-04 08:06 | 40.90449 | 22.80858 | 6074 ft | 281 kts | 154° |
| 2026-05-04 08:08 | 40.78854 | 22.87775 | 3475 ft | 238 kts | 154° |
| 2026-05-04 08:08 | 40.77330 | 22.88683 | 3354 ft | 239 kts | 155° |
| 2026-05-04 08:10 | 40.65354 | 22.92829 | 2558 ft | 218 kts | 166° |
| 2026-05-04 08:11 | 40.63902 | 22.93293 | 2318 ft | 210 kts | 166° |
| 2026-05-04 08:11 | 40.61212 | 22.94151 | 1734 ft | 186 kts | 166° |
| 2026-05-04 08:11 | 40.60012 | 22.94533 | 1496 ft | 168 kts | 166° |
| 2026-05-04 08:12 | 40.58916 | 22.94882 | 1261 ft | 156 kts | 166° |
| 2026-05-04 08:12 | 40.57879 | 22.95213 | 1050 ft | 151 kts | 167° |
| 2026-05-04 08:12 | 40.56867 | 22.95536 | 841 ft | 148 kts | 167° |
| 2026-05-04 08:12 | 40.55869 | 22.95853 | 634 ft | 147 kts | 167° |
| 2026-05-04 08:13 | 40.54875 | 22.96169 | 437 ft | 148 kts | 167° |
| 2026-05-04 08:13 | 40.53880 | 22.96490 | 240 ft | 146 kts | 166° |
| 2026-05-04 08:13 | 40.52896 | 22.96806 | 47 ft | 144 kts | 168° |
| 2026-05-04 08:13 | 40.52039 | 22.97076 | 25 ft | 98 kts | 167° |
| 2026-05-04 08:14 | 40.51583 | 22.97218 | 30 ft | 26 kts | 164° |
| 2026-05-04 08:14 | 40.51515 | 22.97347 | 29 ft | 16 kts | 90° |
| 2026-05-04 08:14 | 40.51562 | 22.97409 | 29 ft | 10 kts | 358° |
| 2026-05-04 08:16 | 40.51716 | 22.97360 | 29 ft | 1 kts | 347° |
| 2026-05-04 08:16 | 40.51776 | 22.97342 | 29 ft | 17 kts | 347° |
| 2026-05-04 08:16 | 40.51897 | 22.97302 | 26 ft | 17 kts | 346° |
| 2026-05-04 08:17 | 40.52016 | 22.97266 | 27 ft | 17 kts | 348° |
| 2026-05-04 08:17 | 40.52104 | 22.97262 | 28 ft | 6 kts | 59° |
| 2026-05-04 08:17 | 40.52102 | 22.97312 | 28 ft | 5 kts | 103° |
| 2026-05-04 08:17 | 40.52095 | 22.97356 | 28 ft | 5 kts | 102° |
| 2026-05-04 08:19 | 40.52257 | 22.97541 | 28 ft | 9 kts | 315° |
| 2026-05-04 08:19 | 40.52286 | 22.97530 | 28 ft | 5 kts | 36° |
| 2026-05-04 08:20 | 40.52308 | 22.97556 | 28 ft | 2 kts | 47° |
| 2026-05-04 08:20 | 40.52316 | 22.97568 | 28 ft | 1 kts | 44° |
| 2026-05-04 08:20 | 40.52322 | 22.97574 | 28 ft | 1 kts | 45° |
| 2026-05-04 08:20 | 40.52323 | 22.97576 | 28 ft | 0 kts | 45° |